Time;durP1;ratioP1;P1;durP2;ratioP2;P2;SDS_P1;SDS_P2;PMS_P1;PMS_P2;Temp;Humidity;BMP_temperature;BMP_pressure;BME280_temperature;BME280_humidity;BME280_pressure;Samples;Min_cycle;Max_cycle;Signal;HPM_P1;HPM_P2
2019/07/25 00:00:41;;;;;;;12.95;11.85;;;;;;;20.52;75.51563;95326.81;;;;
2019/07/25 00:01:51;;;;;;;12.95;11.85;;;;;;;20.52;75.51563;95326.81;;;;
2019/07/25 00:02:52;;;;;;;12.95;11.8;;;;;;;20.42;76.39551;95328.34;;;;
2019/07/25 00:03:54;;;;;;;12.95;11.8;;;;;;;20.42;76.39551;95328.34;;;;
2019/07/25 00:04:55;;;;;;;12.95;11.8;;;;;;;20.42;76.39551;95328.34;;;;
2019/07/25 00:05:56;;;;;;;12.95;11.8;;;;;;;20.42;76.39551;95328.34;;;;
2019/07/25 00:06:57;;;;;;;12.95;11.8;;;;;;;20.42;76.39551;95328.34;;;;
2019/07/25 00:07:58;;;;;;;12.95;11.8;;;;;;;20.42;76.39551;95328.34;;;;
2019/07/25 00:08:59;;;;;;;12.95;11.8;;;;;;;20.42;76.39551;95328.34;;;;
2019/07/25 00:10:00;;;;;;;12.95;11.8;;;;;;;20.42;76.39551;95328.34;;;;
2019/07/25 00:11:03;;;;;;;12.95;11.8;;;;;;;20.42;76.39551;95328.34;;;;
2019/07/25 00:12:04;;;;;;;12.95;11.8;;;;;;;20.42;76.39551;95328.34;;;;
2019/07/25 00:13:06;;;;;;;13.75;12.6;;;;;;;20.27;77.26758;95335.82;;;;
2019/07/25 00:14:07;;;;;;;13.75;12.6;;;;;;;20.27;77.26758;95335.82;;;;
2019/07/25 00:15:09;;;;;;;13.75;12.6;;;;;;;20.27;77.26758;95335.82;;;;
2019/07/25 00:16:12;;;;;;;13.75;12.6;;;;;;;20.27;77.26758;95335.82;;;;
2019/07/25 00:17:13;;;;;;;13.75;12.6;;;;;;;20.27;77.26758;95335.82;;;;
2019/07/25 00:18:14;;;;;;;13.75;12.6;;;;;;;20.27;77.26758;95335.82;;;;
2019/07/25 00:19:15;;;;;;;13.75;12.6;;;;;;;20.27;77.26758;95335.82;;;;
2019/07/25 00:20:17;;;;;;;13.75;12.6;;;;;;;20.27;77.26758;95335.82;;;;
2019/07/25 00:21:18;;;;;;;13.75;12.6;;;;;;;20.27;77.26758;95335.82;;;;
2019/07/25 00:22:19;;;;;;;13.75;12.6;;;;;;;20.27;77.26758;95335.82;;;;
2019/07/25 00:23:20;;;;;;;12.95;11.85;;;;;;;20.18;78.34375;95330.55;;;;
2019/07/25 00:24:21;;;;;;;12.95;11.85;;;;;;;20.18;78.34375;95330.55;;;;
2019/07/25 00:25:22;;;;;;;12.95;11.85;;;;;;;20.18;78.34375;95330.55;;;;
2019/07/25 00:26:23;;;;;;;12.95;11.85;;;;;;;20.18;78.34375;95330.55;;;;
2019/07/25 00:27:25;;;;;;;12.95;11.85;;;;;;;20.18;78.34375;95330.55;;;;
2019/07/25 00:28:26;;;;;;;12.95;11.85;;;;;;;20.18;78.34375;95330.55;;;;
2019/07/25 00:29:27;;;;;;;12.95;11.85;;;;;;;20.18;78.34375;95330.55;;;;
2019/07/25 00:30:28;;;;;;;12.95;11.85;;;;;;;20.18;78.34375;95330.55;;;;
2019/07/25 00:31:38;;;;;;;12.95;11.85;;;;;;;20.18;78.34375;95330.55;;;;
2019/07/25 00:32:39;;;;;;;12.95;11.85;;;;;;;20.18;78.34375;95330.55;;;;
2019/07/25 00:33:40;;;;;;;12.95;11.85;;;;;;;20.18;78.34375;95330.55;;;;
2019/07/25 00:34:41;;;;;;;13.6;12.3;;;;;;;20.04;79.19434;95320.98;;;;
2019/07/25 00:35:42;;;;;;;13.6;12.3;;;;;;;20.04;79.19434;95320.98;;;;
2019/07/25 00:36:43;;;;;;;13.6;12.3;;;;;;;20.04;79.19434;95320.98;;;;
2019/07/25 00:37:44;;;;;;;13.6;12.3;;;;;;;20.04;79.19434;95320.98;;;;
2019/07/25 00:38:45;;;;;;;13.6;12.3;;;;;;;20.04;79.19434;95320.98;;;;
2019/07/25 00:39:46;;;;;;;13.6;12.3;;;;;;;20.04;79.19434;95320.98;;;;
2019/07/25 00:40:47;;;;;;;13.6;12.3;;;;;;;20.04;79.19434;95320.98;;;;
2019/07/25 00:41:48;;;;;;;13.6;12.3;;;;;;;20.04;79.19434;95320.98;;;;
2019/07/25 00:42:49;;;;;;;13.6;12.3;;;;;;;20.04;79.19434;95320.98;;;;
2019/07/25 00:43:51;;;;;;;13.6;12.3;;;;;;;20.04;79.19434;95320.98;;;;
2019/07/25 00:44:52;;;;;;;13.7;12.55;;;;;;;20;80.20117;95327.36;;;;
2019/07/25 00:45:53;;;;;;;13.7;12.55;;;;;;;20;80.20117;95327.36;;;;
2019/07/25 00:46:54;;;;;;;13.7;12.55;;;;;;;20;80.20117;95327.36;;;;
2019/07/25 00:47:55;;;;;;;13.7;12.55;;;;;;;20;80.20117;95327.36;;;;
2019/07/25 00:48:56;;;;;;;13.7;12.55;;;;;;;20;80.20117;95327.36;;;;
2019/07/25 00:49:57;;;;;;;13.7;12.55;;;;;;;20;80.20117;95327.36;;;;
2019/07/25 00:50:58;;;;;;;13.7;12.55;;;;;;;20;80.20117;95327.36;;;;
2019/07/25 00:51:59;;;;;;;13.7;12.55;;;;;;;20;80.20117;95327.36;;;;
2019/07/25 00:53:00;;;;;;;13.7;12.55;;;;;;;20;80.20117;95327.36;;;;
2019/07/25 00:54:01;;;;;;;13.7;12.55;;;;;;;20;80.20117;95327.36;;;;
2019/07/25 00:55:03;;;;;;;13.7;12.55;;;;;;;20;80.20117;95327.36;;;;
2019/07/25 00:56:04;;;;;;;14.65;13.35;;;;;;;19.88;80.94336;95332.83;;;;
2019/07/25 00:57:06;;;;;;;14.65;13.35;;;;;;;19.88;80.94336;95332.83;;;;
2019/07/25 00:58:07;;;;;;;14.65;13.35;;;;;;;19.88;80.94336;95332.83;;;;
2019/07/25 00:59:08;;;;;;;14.65;13.35;;;;;;;19.88;80.94336;95332.83;;;;
2019/07/25 01:00:09;;;;;;;14.65;13.35;;;;;;;19.88;80.94336;95332.83;;;;
2019/07/25 01:01:11;;;;;;;14.65;13.35;;;;;;;19.88;80.94336;95332.83;;;;
2019/07/25 01:02:12;;;;;;;14.65;13.35;;;;;;;19.88;80.94336;95332.83;;;;
2019/07/25 01:03:13;;;;;;;14.65;13.35;;;;;;;19.88;80.94336;95332.83;;;;
2019/07/25 01:04:15;;;;;;;14.65;13.35;;;;;;;19.88;80.94336;95332.83;;;;
2019/07/25 01:05:16;;;;;;;14.65;13.35;;;;;;;19.88;80.94336;95332.83;;;;
2019/07/25 01:06:18;;;;;;;14.2;12.9;;;;;;;19.82;81.95605;95332.65;;;;
2019/07/25 01:07:19;;;;;;;14.2;12.9;;;;;;;19.82;81.95605;95332.65;;;;
2019/07/25 01:08:20;;;;;;;14.2;12.9;;;;;;;19.82;81.95605;95332.65;;;;
2019/07/25 01:09:21;;;;;;;14.2;12.9;;;;;;;19.82;81.95605;95332.65;;;;
2019/07/25 01:10:22;;;;;;;14.2;12.9;;;;;;;19.82;81.95605;95332.65;;;;
2019/07/25 01:11:24;;;;;;;14.2;12.9;;;;;;;19.82;81.95605;95332.65;;;;
2019/07/25 01:12:25;;;;;;;14.2;12.9;;;;;;;19.82;81.95605;95332.65;;;;
2019/07/25 01:13:26;;;;;;;14.2;12.9;;;;;;;19.82;81.95605;95332.65;;;;
2019/07/25 01:14:27;;;;;;;14.2;12.9;;;;;;;19.82;81.95605;95332.65;;;;
2019/07/25 01:15:28;;;;;;;14.2;12.9;;;;;;;19.82;81.95605;95332.65;;;;
2019/07/25 01:16:30;;;;;;;14.15;12.85;;;;;;;19.69;82.83789;95323.22;;;;
2019/07/25 01:17:31;;;;;;;14.15;12.85;;;;;;;19.69;82.83789;95323.22;;;;
2019/07/25 01:18:32;;;;;;;14.15;12.85;;;;;;;19.69;82.83789;95323.22;;;;
2019/07/25 01:19:33;;;;;;;14.15;12.85;;;;;;;19.69;82.83789;95323.22;;;;
2019/07/25 01:20:34;;;;;;;14.15;12.85;;;;;;;19.69;82.83789;95323.22;;;;
2019/07/25 01:21:36;;;;;;;14.15;12.85;;;;;;;19.69;82.83789;95323.22;;;;
2019/07/25 01:22:37;;;;;;;14.15;12.85;;;;;;;19.69;82.83789;95323.22;;;;
2019/07/25 01:23:39;;;;;;;14.15;12.85;;;;;;;19.69;82.83789;95323.22;;;;
2019/07/25 01:24:40;;;;;;;14.15;12.85;;;;;;;19.69;82.83789;95323.22;;;;
2019/07/25 01:25:41;;;;;;;14.15;12.85;;;;;;;19.69;82.83789;95323.22;;;;
2019/07/25 01:26:43;;;;;;;14.15;12.85;;;;;;;19.69;82.83789;95323.22;;;;
2019/07/25 01:27:44;;;;;;;14.1;12.9;;;;;;;19.64;83.83008;95325.19;;;;
2019/07/25 01:28:45;;;;;;;14.1;12.9;;;;;;;19.64;83.83008;95325.19;;;;
2019/07/25 01:29:46;;;;;;;14.1;12.9;;;;;;;19.64;83.83008;95325.19;;;;
2019/07/25 01:30:47;;;;;;;14.1;12.9;;;;;;;19.64;83.83008;95325.19;;;;
2019/07/25 01:31:49;;;;;;;14.1;12.9;;;;;;;19.64;83.83008;95325.19;;;;
2019/07/25 01:32:50;;;;;;;14.1;12.9;;;;;;;19.64;83.83008;95325.19;;;;
2019/07/25 01:33:51;;;;;;;14.1;12.9;;;;;;;19.64;83.83008;95325.19;;;;
2019/07/25 01:34:52;;;;;;;14.1;12.9;;;;;;;19.64;83.83008;95325.19;;;;
2019/07/25 01:35:53;;;;;;;14.1;12.9;;;;;;;19.64;83.83008;95325.19;;;;
2019/07/25 01:36:55;;;;;;;14.1;12.9;;;;;;;19.64;83.83008;95325.19;;;;
2019/07/25 01:37:56;;;;;;;14.75;13.35;;;;;;;19.51;84.6875;95325.87;;;;
2019/07/25 01:38:57;;;;;;;14.75;13.35;;;;;;;19.51;84.6875;95325.87;;;;
2019/07/25 01:39:58;;;;;;;14.75;13.35;;;;;;;19.51;84.6875;95325.87;;;;
2019/07/25 01:40:59;;;;;;;14.75;13.35;;;;;;;19.51;84.6875;95325.87;;;;
2019/07/25 01:42:00;;;;;;;14.75;13.35;;;;;;;19.51;84.6875;95325.87;;;;
2019/07/25 01:43:01;;;;;;;14.75;13.35;;;;;;;19.51;84.6875;95325.87;;;;
2019/07/25 01:44:03;;;;;;;14.75;13.35;;;;;;;19.51;84.6875;95325.87;;;;
2019/07/25 01:45:04;;;;;;;14.75;13.35;;;;;;;19.51;84.6875;95325.87;;;;
2019/07/25 01:46:07;;;;;;;14.75;13.35;;;;;;;19.51;84.6875;95325.87;;;;
2019/07/25 01:47:09;;;;;;;14.75;13.35;;;;;;;19.51;84.6875;95325.87;;;;
2019/07/25 01:48:10;;;;;;;14.85;13.55;;;;;;;19.43;85.84863;95331.43;;;;
2019/07/25 01:49:11;;;;;;;14.85;13.55;;;;;;;19.43;85.84863;95331.43;;;;
2019/07/25 01:50:12;;;;;;;14.85;13.55;;;;;;;19.43;85.84863;95331.43;;;;
2019/07/25 01:51:16;;;;;;;14.85;13.55;;;;;;;19.43;85.84863;95331.43;;;;
2019/07/25 01:52:17;;;;;;;14.85;13.55;;;;;;;19.43;85.84863;95331.43;;;;
2019/07/25 01:53:19;;;;;;;14.85;13.55;;;;;;;19.43;85.84863;95331.43;;;;
2019/07/25 01:54:20;;;;;;;14.85;13.55;;;;;;;19.43;85.84863;95331.43;;;;
2019/07/25 01:55:21;;;;;;;14.85;13.55;;;;;;;19.43;85.84863;95331.43;;;;
2019/07/25 01:56:24;;;;;;;14.85;13.55;;;;;;;19.43;85.84863;95331.43;;;;
2019/07/25 01:57:25;;;;;;;14.85;13.55;;;;;;;19.43;85.84863;95331.43;;;;
2019/07/25 01:58:26;;;;;;;14.85;13.55;;;;;;;19.43;85.84863;95331.43;;;;
2019/07/25 01:59:27;;;;;;;15.15;13.85;;;;;;;19.33;86.61328;95332.92;;;;
2019/07/25 02:00:28;;;;;;;15.15;13.85;;;;;;;19.33;86.61328;95332.92;;;;
2019/07/25 02:01:53;;;;;;;15.15;13.85;;;;;;;19.33;86.61328;95332.92;;;;
2019/07/25 02:02:54;;;;;;;15.15;13.85;;;;;;;19.33;86.61328;95332.92;;;;
2019/07/25 02:03:55;;;;;;;15.15;13.85;;;;;;;19.33;86.61328;95332.92;;;;
2019/07/25 02:04:56;;;;;;;15.15;13.85;;;;;;;19.33;86.61328;95332.92;;;;
2019/07/25 02:05:57;;;;;;;15.15;13.85;;;;;;;19.33;86.61328;95332.92;;;;
2019/07/25 02:06:58;;;;;;;15.15;13.85;;;;;;;19.33;86.61328;95332.92;;;;
2019/07/25 02:08:00;;;;;;;15.15;13.85;;;;;;;19.33;86.61328;95332.92;;;;
2019/07/25 02:09:01;;;;;;;15.15;13.85;;;;;;;19.33;86.61328;95332.92;;;;
2019/07/25 02:10:04;;;;;;;15.15;13.85;;;;;;;19.27;87.40723;95334.03;;;;
2019/07/25 02:11:07;;;;;;;15.15;13.85;;;;;;;19.27;87.40723;95334.03;;;;
2019/07/25 02:12:08;;;;;;;15.15;13.85;;;;;;;19.27;87.40723;95334.03;;;;
2019/07/25 02:13:09;;;;;;;15.15;13.85;;;;;;;19.27;87.40723;95334.03;;;;
2019/07/25 02:14:10;;;;;;;15.15;13.85;;;;;;;19.27;87.40723;95334.03;;;;
2019/07/25 02:15:11;;;;;;;15.15;13.85;;;;;;;19.27;87.40723;95334.03;;;;
2019/07/25 02:16:13;;;;;;;15.15;13.85;;;;;;;19.27;87.40723;95334.03;;;;
2019/07/25 02:17:14;;;;;;;15.15;13.85;;;;;;;19.27;87.40723;95334.03;;;;
2019/07/25 02:18:15;;;;;;;15.15;13.85;;;;;;;19.27;87.40723;95334.03;;;;
2019/07/25 02:19:17;;;;;;;15.15;13.85;;;;;;;19.27;87.40723;95334.03;;;;
2019/07/25 02:20:18;;;;;;;15.55;14.25;;;;;;;19.12;87.9082;95324.2;;;;
2019/07/25 02:21:20;;;;;;;15.55;14.25;;;;;;;19.12;87.9082;95324.2;;;;
2019/07/25 02:22:21;;;;;;;15.55;14.25;;;;;;;19.12;87.9082;95324.2;;;;
2019/07/25 02:23:22;;;;;;;15.55;14.25;;;;;;;19.12;87.9082;95324.2;;;;
2019/07/25 02:24:23;;;;;;;15.55;14.25;;;;;;;19.12;87.9082;95324.2;;;;
2019/07/25 02:25:24;;;;;;;15.55;14.25;;;;;;;19.12;87.9082;95324.2;;;;
2019/07/25 02:26:26;;;;;;;15.55;14.25;;;;;;;19.12;87.9082;95324.2;;;;
2019/07/25 02:27:27;;;;;;;15.55;14.25;;;;;;;19.12;87.9082;95324.2;;;;
2019/07/25 02:28:28;;;;;;;15.55;14.25;;;;;;;19.12;87.9082;95324.2;;;;
2019/07/25 02:29:30;;;;;;;15.55;14.25;;;;;;;19.12;87.9082;95324.2;;;;
2019/07/25 02:30:31;;;;;;;17.05;15.5;;;;;;;19.1;88.63281;95330.51;;;;
2019/07/25 02:31:39;;;;;;;17.05;15.5;;;;;;;19.1;88.63281;95330.51;;;;
2019/07/25 02:32:41;;;;;;;17.05;15.5;;;;;;;19.1;88.63281;95330.51;;;;
2019/07/25 02:33:42;;;;;;;17.05;15.5;;;;;;;19.1;88.63281;95330.51;;;;
2019/07/25 02:34:43;;;;;;;17.05;15.5;;;;;;;19.1;88.63281;95330.51;;;;
2019/07/25 02:35:44;;;;;;;17.05;15.5;;;;;;;19.1;88.63281;95330.51;;;;
2019/07/25 02:36:45;;;;;;;17.05;15.5;;;;;;;19.1;88.63281;95330.51;;;;
2019/07/25 02:37:47;;;;;;;17.05;15.5;;;;;;;19.1;88.63281;95330.51;;;;
2019/07/25 02:38:48;;;;;;;17.05;15.5;;;;;;;19.1;88.63281;95330.51;;;;
2019/07/25 02:39:49;;;;;;;17.05;15.5;;;;;;;19.1;88.63281;95330.51;;;;
2019/07/25 02:40:51;;;;;;;17.05;15.5;;;;;;;19.1;88.63281;95330.51;;;;
2019/07/25 02:41:52;;;;;;;16.7;15.05;;;;;;;19.04;89.18652;95336.16;;;;
2019/07/25 02:42:53;;;;;;;16.7;15.05;;;;;;;19.04;89.18652;95336.16;;;;
2019/07/25 02:43:54;;;;;;;16.7;15.05;;;;;;;19.04;89.18652;95336.16;;;;
2019/07/25 02:44:55;;;;;;;16.7;15.05;;;;;;;19.04;89.18652;95336.16;;;;
2019/07/25 02:45:56;;;;;;;16.7;15.05;;;;;;;19.04;89.18652;95336.16;;;;
2019/07/25 02:46:57;;;;;;;16.7;15.05;;;;;;;19.04;89.18652;95336.16;;;;
2019/07/25 02:47:58;;;;;;;16.7;15.05;;;;;;;19.04;89.18652;95336.16;;;;
2019/07/25 02:49:00;;;;;;;16.7;15.05;;;;;;;19.04;89.18652;95336.16;;;;
2019/07/25 02:50:01;;;;;;;16.7;15.05;;;;;;;19.04;89.18652;95336.16;;;;
2019/07/25 02:51:02;;;;;;;16.7;15.05;;;;;;;19.04;89.18652;95336.16;;;;
2019/07/25 02:52:03;;;;;;;16.35;14.85;;;;;;;19;89.52637;95337.3;;;;
2019/07/25 02:53:05;;;;;;;16.35;14.85;;;;;;;19;89.52637;95337.3;;;;
2019/07/25 02:54:06;;;;;;;16.35;14.85;;;;;;;19;89.52637;95337.3;;;;
2019/07/25 02:55:07;;;;;;;16.35;14.85;;;;;;;19;89.52637;95337.3;;;;
2019/07/25 02:56:08;;;;;;;16.35;14.85;;;;;;;19;89.52637;95337.3;;;;
2019/07/25 02:57:09;;;;;;;16.35;14.85;;;;;;;19;89.52637;95337.3;;;;
2019/07/25 02:58:10;;;;;;;16.35;14.85;;;;;;;19;89.52637;95337.3;;;;
2019/07/25 02:59:14;;;;;;;16.35;14.85;;;;;;;19;89.52637;95337.3;;;;
2019/07/25 03:00:15;;;;;;;16.35;14.85;;;;;;;19;89.52637;95337.3;;;;
2019/07/25 03:01:44;;;;;;;16.35;14.85;;;;;;;19;89.52637;95337.3;;;;
2019/07/25 03:02:45;;;;;;;15.75;14.35;;;;;;;18.92;90.05273;95340.8;;;;
2019/07/25 03:03:46;;;;;;;15.75;14.35;;;;;;;18.92;90.05273;95340.8;;;;
2019/07/25 03:04:47;;;;;;;15.75;14.35;;;;;;;18.92;90.05273;95340.8;;;;
2019/07/25 03:05:48;;;;;;;15.75;14.35;;;;;;;18.92;90.05273;95340.8;;;;
2019/07/25 03:06:49;;;;;;;15.75;14.35;;;;;;;18.92;90.05273;95340.8;;;;
2019/07/25 03:07:50;;;;;;;15.75;14.35;;;;;;;18.92;90.05273;95340.8;;;;
2019/07/25 03:08:51;;;;;;;15.75;14.35;;;;;;;18.92;90.05273;95340.8;;;;
2019/07/25 03:09:53;;;;;;;15.75;14.35;;;;;;;18.92;90.05273;95340.8;;;;
2019/07/25 03:10:54;;;;;;;15.75;14.35;;;;;;;18.92;90.05273;95340.8;;;;
2019/07/25 03:11:55;;;;;;;15.75;14.35;;;;;;;18.92;90.05273;95340.8;;;;
2019/07/25 03:12:56;;;;;;;16;14.7;;;;;;;18.87;90.35547;95340.84;;;;
2019/07/25 03:13:57;;;;;;;16;14.7;;;;;;;18.87;90.35547;95340.84;;;;
2019/07/25 03:14:58;;;;;;;16;14.7;;;;;;;18.87;90.35547;95340.84;;;;
2019/07/25 03:15:59;;;;;;;16;14.7;;;;;;;18.87;90.35547;95340.84;;;;
2019/07/25 03:17:00;;;;;;;16;14.7;;;;;;;18.87;90.35547;95340.84;;;;
2019/07/25 03:18:02;;;;;;;16;14.7;;;;;;;18.87;90.35547;95340.84;;;;
2019/07/25 03:19:03;;;;;;;16;14.7;;;;;;;18.87;90.35547;95340.84;;;;
2019/07/25 03:20:04;;;;;;;16;14.7;;;;;;;18.87;90.35547;95340.84;;;;
2019/07/25 03:21:05;;;;;;;16;14.7;;;;;;;18.87;90.35547;95340.84;;;;
2019/07/25 03:22:06;;;;;;;16;14.7;;;;;;;18.87;90.35547;95340.84;;;;
2019/07/25 03:23:07;;;;;;;16;14.7;;;;;;;18.87;90.35547;95340.84;;;;
2019/07/25 03:24:08;;;;;;;16.8;15.3;;;;;;;18.72;90.80469;95337.67;;;;
2019/07/25 03:25:09;;;;;;;16.8;15.3;;;;;;;18.72;90.80469;95337.67;;;;
2019/07/25 03:26:10;;;;;;;16.8;15.3;;;;;;;18.72;90.80469;95337.67;;;;
2019/07/25 03:27:12;;;;;;;16.8;15.3;;;;;;;18.72;90.80469;95337.67;;;;
2019/07/25 03:28:13;;;;;;;16.8;15.3;;;;;;;18.72;90.80469;95337.67;;;;
2019/07/25 03:29:14;;;;;;;16.8;15.3;;;;;;;18.72;90.80469;95337.67;;;;
2019/07/25 03:30:15;;;;;;;16.8;15.3;;;;;;;18.72;90.80469;95337.67;;;;
2019/07/25 03:31:16;;;;;;;16.8;15.3;;;;;;;18.72;90.80469;95337.67;;;;
2019/07/25 03:32:17;;;;;;;16.8;15.3;;;;;;;18.72;90.80469;95337.67;;;;
2019/07/25 03:33:18;;;;;;;16.8;15.3;;;;;;;18.72;90.80469;95337.67;;;;
2019/07/25 03:34:19;;;;;;;17.75;16.15;;;;;;;18.66;91.37891;95354.25;;;;
2019/07/25 03:35:21;;;;;;;17.75;16.15;;;;;;;18.66;91.37891;95354.25;;;;
2019/07/25 03:36:22;;;;;;;17.75;16.15;;;;;;;18.66;91.37891;95354.25;;;;
2019/07/25 03:37:23;;;;;;;17.75;16.15;;;;;;;18.66;91.37891;95354.25;;;;
2019/07/25 03:38:24;;;;;;;17.75;16.15;;;;;;;18.66;91.37891;95354.25;;;;
2019/07/25 03:39:25;;;;;;;17.75;16.15;;;;;;;18.66;91.37891;95354.25;;;;
2019/07/25 03:40:26;;;;;;;17.75;16.15;;;;;;;18.66;91.37891;95354.25;;;;
2019/07/25 03:41:27;;;;;;;17.75;16.15;;;;;;;18.66;91.37891;95354.25;;;;
2019/07/25 03:42:28;;;;;;;17.75;16.15;;;;;;;18.66;91.37891;95354.25;;;;
2019/07/25 03:43:29;;;;;;;17.75;16.15;;;;;;;18.66;91.37891;95354.25;;;;
2019/07/25 03:44:30;;;;;;;17.75;16.15;;;;;;;18.66;91.37891;95354.25;;;;
2019/07/25 03:45:32;;;;;;;17.95;16.35;;;;;;;18.58;91.80566;95348.58;;;;
2019/07/25 03:46:33;;;;;;;17.95;16.35;;;;;;;18.58;91.80566;95348.58;;;;
2019/07/25 03:47:34;;;;;;;17.95;16.35;;;;;;;18.58;91.80566;95348.58;;;;
2019/07/25 03:48:35;;;;;;;17.95;16.35;;;;;;;18.58;91.80566;95348.58;;;;
2019/07/25 03:49:36;;;;;;;17.95;16.35;;;;;;;18.58;91.80566;95348.58;;;;
2019/07/25 03:50:37;;;;;;;17.95;16.35;;;;;;;18.58;91.80566;95348.58;;;;
2019/07/25 03:51:39;;;;;;;17.95;16.35;;;;;;;18.58;91.80566;95348.58;;;;
2019/07/25 03:52:40;;;;;;;17.95;16.35;;;;;;;18.58;91.80566;95348.58;;;;
2019/07/25 03:53:41;;;;;;;17.95;16.35;;;;;;;18.58;91.80566;95348.58;;;;
2019/07/25 03:54:42;;;;;;;17.95;16.35;;;;;;;18.58;91.80566;95348.58;;;;
2019/07/25 03:55:43;;;;;;;17.35;15.95;;;;;;;18.58;92.19629;95359.93;;;;
2019/07/25 03:56:44;;;;;;;17.35;15.95;;;;;;;18.58;92.19629;95359.93;;;;
2019/07/25 03:57:45;;;;;;;17.35;15.95;;;;;;;18.58;92.19629;95359.93;;;;
2019/07/25 03:58:46;;;;;;;17.35;15.95;;;;;;;18.58;92.19629;95359.93;;;;
2019/07/25 03:59:47;;;;;;;17.35;15.95;;;;;;;18.58;92.19629;95359.93;;;;
2019/07/25 04:00:48;;;;;;;17.35;15.95;;;;;;;18.58;92.19629;95359.93;;;;
2019/07/25 04:01:49;;;;;;;17.35;15.95;;;;;;;18.58;92.19629;95359.93;;;;
2019/07/25 04:02:51;;;;;;;17.35;15.95;;;;;;;18.58;92.19629;95359.93;;;;
2019/07/25 04:03:52;;;;;;;17.35;15.95;;;;;;;18.58;92.19629;95359.93;;;;
2019/07/25 04:04:53;;;;;;;17.35;15.95;;;;;;;18.58;92.19629;95359.93;;;;
2019/07/25 04:05:54;;;;;;;16.7;15.2;;;;;;;18.57;92.4541;95366.07;;;;
2019/07/25 04:06:55;;;;;;;16.7;15.2;;;;;;;18.57;92.4541;95366.07;;;;
2019/07/25 04:07:57;;;;;;;16.7;15.2;;;;;;;18.57;92.4541;95366.07;;;;
2019/07/25 04:08:59;;;;;;;16.7;15.2;;;;;;;18.57;92.4541;95366.07;;;;
2019/07/25 04:10:00;;;;;;;16.7;15.2;;;;;;;18.57;92.4541;95366.07;;;;
2019/07/25 04:11:01;;;;;;;16.7;15.2;;;;;;;18.57;92.4541;95366.07;;;;
2019/07/25 04:12:02;;;;;;;16.7;15.2;;;;;;;18.57;92.4541;95366.07;;;;
2019/07/25 04:13:03;;;;;;;16.7;15.2;;;;;;;18.57;92.4541;95366.07;;;;
2019/07/25 04:14:04;;;;;;;16.7;15.2;;;;;;;18.57;92.4541;95366.07;;;;
2019/07/25 04:15:06;;;;;;;16.7;15.2;;;;;;;18.57;92.4541;95366.07;;;;
2019/07/25 04:16:07;;;;;;;16.7;15.2;;;;;;;18.57;92.4541;95366.07;;;;
2019/07/25 04:17:08;;;;;;;17.75;16.1;;;;;;;18.69;92.60938;95368.72;;;;
2019/07/25 04:18:09;;;;;;;17.75;16.1;;;;;;;18.69;92.60938;95368.72;;;;
2019/07/25 04:19:10;;;;;;;17.75;16.1;;;;;;;18.69;92.60938;95368.72;;;;
2019/07/25 04:20:11;;;;;;;17.75;16.1;;;;;;;18.69;92.60938;95368.72;;;;
2019/07/25 04:21:13;;;;;;;17.75;16.1;;;;;;;18.69;92.60938;95368.72;;;;
2019/07/25 04:22:14;;;;;;;17.75;16.1;;;;;;;18.69;92.60938;95368.72;;;;
2019/07/25 04:23:15;;;;;;;17.75;16.1;;;;;;;18.69;92.60938;95368.72;;;;
2019/07/25 04:24:16;;;;;;;17.75;16.1;;;;;;;18.69;92.60938;95368.72;;;;
2019/07/25 04:25:17;;;;;;;17.75;16.1;;;;;;;18.69;92.60938;95368.72;;;;
2019/07/25 04:26:19;;;;;;;17.75;16.1;;;;;;;18.69;92.60938;95368.72;;;;
2019/07/25 04:27:20;;;;;;;18;16.4;;;;;;;18.88;92.7793;95373.8;;;;
2019/07/25 04:28:21;;;;;;;18;16.4;;;;;;;18.88;92.7793;95373.8;;;;
2019/07/25 04:29:22;;;;;;;18;16.4;;;;;;;18.88;92.7793;95373.8;;;;
2019/07/25 04:30:23;;;;;;;18;16.4;;;;;;;18.88;92.7793;95373.8;;;;
2019/07/25 04:31:24;;;;;;;18;16.4;;;;;;;18.88;92.7793;95373.8;;;;
2019/07/25 04:32:25;;;;;;;18;16.4;;;;;;;18.88;92.7793;95373.8;;;;
2019/07/25 04:33:27;;;;;;;18;16.4;;;;;;;18.88;92.7793;95373.8;;;;
2019/07/25 04:34:28;;;;;;;18;16.4;;;;;;;18.88;92.7793;95373.8;;;;
2019/07/25 04:35:29;;;;;;;18;16.4;;;;;;;18.88;92.7793;95373.8;;;;
2019/07/25 04:36:30;;;;;;;18;16.4;;;;;;;18.88;92.7793;95373.8;;;;
2019/07/25 04:37:31;;;;;;;18;16.4;;;;;;;18.88;92.7793;95373.8;;;;
2019/07/25 04:38:32;;;;;;;17.55;15.95;;;;;;;19.21;92.68457;95376.26;;;;
2019/07/25 04:39:33;;;;;;;17.55;15.95;;;;;;;19.21;92.68457;95376.26;;;;
2019/07/25 04:40:34;;;;;;;17.55;15.95;;;;;;;19.21;92.68457;95376.26;;;;
2019/07/25 04:41:39;;;;;;;17.55;15.95;;;;;;;19.21;92.68457;95376.26;;;;
2019/07/25 04:42:40;;;;;;;17.55;15.95;;;;;;;19.21;92.68457;95376.26;;;;
2019/07/25 04:43:41;;;;;;;17.55;15.95;;;;;;;19.21;92.68457;95376.26;;;;
2019/07/25 04:44:43;;;;;;;17.55;15.95;;;;;;;19.21;92.68457;95376.26;;;;
2019/07/25 04:45:44;;;;;;;17.55;15.95;;;;;;;19.21;92.68457;95376.26;;;;
2019/07/25 04:46:45;;;;;;;17.55;15.95;;;;;;;19.21;92.68457;95376.26;;;;
2019/07/25 04:47:46;;;;;;;17.55;15.95;;;;;;;19.21;92.68457;95376.26;;;;
2019/07/25 04:48:47;;;;;;;17.35;15.55;;;;;;;19.48;92.54395;95375.76;;;;
2019/07/25 04:49:48;;;;;;;17.35;15.55;;;;;;;19.48;92.54395;95375.76;;;;
2019/07/25 04:50:49;;;;;;;17.35;15.55;;;;;;;19.48;92.54395;95375.76;;;;
2019/07/25 04:51:50;;;;;;;17.35;15.55;;;;;;;19.48;92.54395;95375.76;;;;
2019/07/25 04:52:51;;;;;;;17.35;15.55;;;;;;;19.48;92.54395;95375.76;;;;
2019/07/25 04:53:52;;;;;;;17.35;15.55;;;;;;;19.48;92.54395;95375.76;;;;
2019/07/25 04:54:54;;;;;;;17.35;15.55;;;;;;;19.48;92.54395;95375.76;;;;
2019/07/25 04:55:55;;;;;;;17.35;15.55;;;;;;;19.48;92.54395;95375.76;;;;
2019/07/25 04:56:56;;;;;;;17.35;15.55;;;;;;;19.48;92.54395;95375.76;;;;
2019/07/25 04:57:57;;;;;;;17.35;15.55;;;;;;;19.48;92.54395;95375.76;;;;
2019/07/25 04:58:58;;;;;;;16.85;15.25;;;;;;;19.84;92.43555;95383.29;;;;
2019/07/25 04:59:59;;;;;;;16.85;15.25;;;;;;;19.84;92.43555;95383.29;;;;
2019/07/25 05:01:00;;;;;;;16.85;15.25;;;;;;;19.84;92.43555;95383.29;;;;
2019/07/25 05:02:01;;;;;;;16.85;15.25;;;;;;;19.84;92.43555;95383.29;;;;
2019/07/25 05:03:03;;;;;;;16.85;15.25;;;;;;;19.84;92.43555;95383.29;;;;
2019/07/25 05:04:04;;;;;;;16.85;15.25;;;;;;;19.84;92.43555;95383.29;;;;
2019/07/25 05:05:05;;;;;;;16.85;15.25;;;;;;;19.84;92.43555;95383.29;;;;
2019/07/25 05:06:06;;;;;;;16.85;15.25;;;;;;;19.84;92.43555;95383.29;;;;
2019/07/25 05:07:07;;;;;;;16.85;15.25;;;;;;;19.84;92.43555;95383.29;;;;
2019/07/25 05:08:08;;;;;;;16.85;15.25;;;;;;;19.84;92.43555;95383.29;;;;
2019/07/25 05:09:09;;;;;;;16.85;15.25;;;;;;;19.84;92.43555;95383.29;;;;
2019/07/25 05:10:11;;;;;;;16.7;15.2;;;;;;;20.19;92.12598;95382.11;;;;
2019/07/25 05:11:12;;;;;;;16.7;15.2;;;;;;;20.19;92.12598;95382.11;;;;
2019/07/25 05:12:13;;;;;;;16.7;15.2;;;;;;;20.19;92.12598;95382.11;;;;
2019/07/25 05:13:14;;;;;;;16.7;15.2;;;;;;;20.19;92.12598;95382.11;;;;
2019/07/25 05:14:15;;;;;;;16.7;15.2;;;;;;;20.19;92.12598;95382.11;;;;
2019/07/25 05:15:17;;;;;;;16.7;15.2;;;;;;;20.19;92.12598;95382.11;;;;
2019/07/25 05:16:18;;;;;;;16.7;15.2;;;;;;;20.19;92.12598;95382.11;;;;
2019/07/25 05:17:20;;;;;;;16.7;15.2;;;;;;;20.19;92.12598;95382.11;;;;
2019/07/25 05:18:21;;;;;;;16.7;15.2;;;;;;;20.19;92.12598;95382.11;;;;
2019/07/25 05:19:22;;;;;;;16.7;15.2;;;;;;;20.19;92.12598;95382.11;;;;
2019/07/25 05:20:23;;;;;;;15.9;14.3;;;;;;;20.62;91.64746;95373.71;;;;
2019/07/25 05:21:24;;;;;;;15.9;14.3;;;;;;;20.62;91.64746;95373.71;;;;
2019/07/25 05:22:25;;;;;;;15.9;14.3;;;;;;;20.62;91.64746;95373.71;;;;
2019/07/25 05:23:26;;;;;;;15.9;14.3;;;;;;;20.62;91.64746;95373.71;;;;
2019/07/25 05:24:27;;;;;;;15.9;14.3;;;;;;;20.62;91.64746;95373.71;;;;
2019/07/25 05:25:28;;;;;;;15.9;14.3;;;;;;;20.62;91.64746;95373.71;;;;
2019/07/25 05:26:29;;;;;;;15.9;14.3;;;;;;;20.62;91.64746;95373.71;;;;
2019/07/25 05:27:30;;;;;;;15.9;14.3;;;;;;;20.62;91.64746;95373.71;;;;
2019/07/25 05:28:32;;;;;;;15.9;14.3;;;;;;;20.62;91.64746;95373.71;;;;
2019/07/25 05:29:33;;;;;;;15.9;14.3;;;;;;;20.62;91.64746;95373.71;;;;
2019/07/25 05:30:34;;;;;;;15.9;14.3;;;;;;;20.62;91.64746;95373.71;;;;
2019/07/25 05:31:35;;;;;;;15.9;14.4;;;;;;;20.86;91.31543;95383.09;;;;
2019/07/25 05:32:36;;;;;;;15.9;14.4;;;;;;;20.86;91.31543;95383.09;;;;
2019/07/25 05:33:37;;;;;;;15.9;14.4;;;;;;;20.86;91.31543;95383.09;;;;
2019/07/25 05:34:38;;;;;;;15.9;14.4;;;;;;;20.86;91.31543;95383.09;;;;
2019/07/25 05:35:39;;;;;;;15.9;14.4;;;;;;;20.86;91.31543;95383.09;;;;
2019/07/25 05:36:40;;;;;;;15.9;14.4;;;;;;;20.86;91.31543;95383.09;;;;
2019/07/25 05:37:41;;;;;;;15.9;14.4;;;;;;;20.86;91.31543;95383.09;;;;
2019/07/25 05:38:42;;;;;;;15.9;14.4;;;;;;;20.86;91.31543;95383.09;;;;
2019/07/25 05:39:44;;;;;;;15.9;14.4;;;;;;;20.86;91.31543;95383.09;;;;
2019/07/25 05:40:45;;;;;;;15.9;14.4;;;;;;;20.86;91.31543;95383.09;;;;
2019/07/25 05:41:46;;;;;;;16.25;14.8;;;;;;;21.13;90.93555;95380.1;;;;
2019/07/25 05:42:47;;;;;;;16.25;14.8;;;;;;;21.13;90.93555;95380.1;;;;
2019/07/25 05:43:48;;;;;;;16.25;14.8;;;;;;;21.13;90.93555;95380.1;;;;
2019/07/25 05:44:49;;;;;;;16.25;14.8;;;;;;;21.13;90.93555;95380.1;;;;